Time;durP1;ratioP1;P1;durP2;ratioP2;P2;SDS_P1;SDS_P2;PMS_P1;PMS_P2;Temp;Humidity;BMP_temperature;BMP_pressure;BME280_temperature;BME280_humidity;BME280_pressure;Samples;Min_cycle;Max_cycle;Signal;HPM_P1;HPM_P2
2022/12/09 00:01:24;;;;;;;14.30;9.45;;;5.00;93.50;;;;;;1882301;76;21082;-48
2022/12/09 00:03:55;;;;;;;18.02;10.25;;;4.90;93.40;;;;;;1882305;76;21052;-49
2022/12/09 00:06:26;;;;;;;18.52;10.58;;;5.00;93.40;;;;;;1882382;76;21078;-48
2022/12/09 00:08:56;;;;;;;14.40;8.28;;;4.90;93.30;;;;;;1882314;76;21021;-47
2022/12/09 00:11:26;;;;;;;17.92;9.78;;;5.00;93.40;;;;;;1882207;76;21012;-49
2022/12/09 00:13:57;;;;;;;15.40;9.03;;;4.90;93.00;;;;;;1882373;76;21074;-50
2022/12/09 00:16:27;;;;;;;14.70;9.88;;;4.80;92.30;;;;;;1882412;76;21066;-49
2022/12/09 00:18:57;;;;;;;13.95;9.43;;;4.60;93.00;;;;;;1882372;76;21016;-47
2022/12/09 00:21:29;;;;;;;17.15;9.40;;;4.50;93.30;;;;;;1882236;76;21012;-49
2022/12/09 00:24:01;;;;;;;15.60;10.28;;;4.50;93.50;;;;;;1882358;76;21071;-48
2022/12/09 00:26:30;;;;;;;14.45;9.40;;;4.60;93.60;;;;;;1882250;76;21048;-47
2022/12/09 00:29:00;;;;;;;15.05;10.18;;;4.60;93.70;;;;;;1882340;76;21028;-50
2022/12/09 00:31:31;;;;;;;16.62;10.98;;;4.70;93.70;;;;;;1882167;76;21075;-48
2022/12/09 00:34:03;;;;;;;13.53;9.90;;;4.80;93.60;;;;;;1882224;76;21109;-48
2022/12/09 00:36:32;;;;;;;18.42;9.78;;;4.80;93.50;;;;;;1882190;76;21091;-48
2022/12/09 00:39:02;;;;;;;20.80;9.88;;;4.80;93.50;;;;;;1882347;76;20988;-50
2022/12/09 00:41:31;;;;;;;13.40;9.48;;;4.90;93.50;;;;;;1882240;76;21020;-47
2022/12/09 00:44:00;;;;;;;18.12;10.93;;;4.90;93.40;;;;;;1879842;75;21577;-47
2022/12/09 00:46:30;;;;;;;15.13;10.50;;;4.90;93.40;;;;;;1872877;77;21092;-47
2022/12/09 00:48:59;;;;;;;14.85;10.75;;;4.90;93.30;;;;;;1872736;76;21126;-48
2022/12/09 00:51:28;;;;;;;16.05;11.08;;;4.90;93.30;;;;;;1872712;76;21076;-49
2022/12/09 00:53:57;;;;;;;16.52;10.85;;;4.90;93.20;;;;;;1872745;77;20993;-49
2022/12/09 00:56:29;;;;;;;17.23;11.05;;;4.90;93.20;;;;;;1872788;77;20989;-49
2022/12/09 00:58:59;;;;;;;18.42;10.78;;;4.90;93.20;;;;;;1872746;77;21127;-48
2022/12/09 01:01:28;;;;;;;13.22;10.58;;;4.80;93.20;;;;;;1872700;77;21079;-49
2022/12/09 01:03:57;;;;;;;18.73;10.18;;;4.90;93.20;;;;;;1872758;77;21400;-47
2022/12/09 01:06:27;;;;;;;17.27;11.50;;;4.80;93.20;;;;;;1872845;77;21044;-48
2022/12/09 01:08:56;;;;;;;20.82;10.93;;;4.80;93.20;;;;;;1872783;76;21078;-49
2022/12/09 01:11:28;;;;;;;17.60;12.30;;;4.80;93.20;;;;;;1872855;76;21091;-47
2022/12/09 01:13:59;;;;;;;13.78;10.90;;;4.80;93.00;;;;;;1872717;77;21078;-48
2022/12/09 01:16:32;;;;;;;18.48;10.55;;;4.70;93.20;;;;;;1872744;77;21778;-48
2022/12/09 01:19:03;;;;;;;20.85;10.28;;;4.70;93.30;;;;;;1872875;76;21013;-47
2022/12/09 01:21:34;;;;;;;15.45;10.35;;;4.70;93.20;;;;;;1872696;77;21104;-48
2022/12/09 01:24:08;;;;;;;13.95;9.70;;;4.60;93.10;;;;;;1872748;77;21016;-48
2022/12/09 01:26:37;;;;;;;;;;;4.60;93.20;;;;;;1875495;77;21122;-48
2022/12/09 01:29:09;;;;;;;11.90;8.55;;;4.60;93.10;;;;;;1872786;76;20490;-47
2022/12/09 01:31:39;;;;;;;13.88;10.23;;;4.60;93.00;;;;;;1872759;77;21344;-47
2022/12/09 01:34:08;;;;;;;14.70;9.58;;;4.50;93.20;;;;;;1872723;77;21082;-49
2022/12/09 01:36:37;;;;;;;13.43;9.20;;;4.50;93.20;;;;;;1872723;77;21021;-48
2022/12/09 01:39:06;;;;;;;10.45;8.85;;;4.50;93.30;;;;;;1872736;76;21169;-51
2022/12/09 01:41:36;;;;;;;11.45;8.63;;;4.50;93.30;;;;;;1872680;77;20993;-49
2022/12/09 01:44:15;;;;;;;16.15;9.45;;;4.50;93.20;;;;;;1870369;75;21052;-48
2022/12/09 01:46:45;;;;;;;14.07;8.75;;;4.50;93.10;;;;;;1872949;77;21544;-47
2022/12/09 01:49:23;;;;;;;15.28;9.50;;;4.40;93.20;;;;;;1872860;76;21009;-49
2022/12/09 01:51:58;;;;;;;13.98;10.25;;;4.40;93.30;;;;;;1872853;77;21005;-49
2022/12/09 01:54:27;;;;;;;16.23;9.68;;;4.40;93.30;;;;;;1873077;77;21560;-50
2022/12/09 01:56:56;;;;;;;13.75;8.40;;;4.40;93.30;;;;;;1872913;76;20985;-47
2022/12/09 01:59:26;;;;;;;15.53;9.00;;;4.40;93.30;;;;;;1872866;77;21021;-47
2022/12/09 02:02:00;;;;;;;10.80;8.40;;;4.40;93.20;;;;;;1872772;77;21066;-47
2022/12/09 02:04:32;;;;;;;12.55;8.78;;;4.40;93.30;;;;;;1872878;77;21475;-49
2022/12/09 02:07:05;;;;;;;12.25;9.03;;;4.50;93.00;;;;;;1872828;77;21102;-47
2022/12/09 02:09:34;;;;;;;13.72;8.55;;;4.50;93.20;;;;;;1872857;76;21009;-47
2022/12/09 02:12:12;;;;;;;15.18;10.28;;;4.50;93.00;;;;;;1872801;76;21008;-48
2022/12/09 02:15:02;;;;;;;17.25;9.05;;;4.40;92.60;;;;;;1872869;76;21013;-49
2022/12/09 02:17:45;;;;;;;20.48;10.75;;;4.30;93.10;;;;;;1872712;76;21069;-48
2022/12/09 02:20:38;;;;;;;17.65;10.20;;;4.20;93.30;;;;;;1872715;76;21083;-49
2022/12/09 02:23:19;;;;;;;26.65;12.03;;;4.30;93.40;;;;;;1872814;77;21537;-48
2022/12/09 02:25:51;;;;;;;18.02;11.22;;;4.30;93.40;;;;;;1873016;77;21044;-49
2022/12/09 02:28:45;;;;;;;16.20;10.38;;;4.30;93.20;;;;;;1872555;76;21100;-47
2022/12/09 02:31:34;;;;;;;16.48;10.40;;;4.30;93.30;;;;;;1872926;77;21081;-47
2022/12/09 02:34:12;;;;;;;14.85;10.10;;;4.30;93.60;;;;;;1872216;76;21045;-49
2022/12/09 02:37:10;;;;;;;20.48;11.40;;;4.40;93.50;;;;;;1872724;76;21166;-48
2022/12/09 02:40:09;;;;;;;26.80;13.10;;;4.40;93.60;;;;;;1872920;77;21013;-50
2022/12/09 02:42:41;;;;;;;16.27;10.25;;;4.50;93.30;;;;;;1827650;76;21190;-49
2022/12/09 02:45:13;;;;;;;29.95;13.25;;;4.50;93.20;;;;;;1872848;76;21111;-48
2022/12/09 02:47:49;;;;;;;36.53;18.30;;;4.40;92.90;;;;;;1872774;77;21106;-47
2022/12/09 02:50:22;;;;;;;23.07;13.78;;;4.40;93.10;;;;;;1872832;77;21045;-47
2022/12/09 02:52:53;;;;;;;27.67;18.07;;;4.30;93.20;;;;;;1872816;77;21519;-49
2022/12/09 02:55:23;;;;;;;126.33;52.40;;;4.30;93.10;;;;;;1872979;76;21009;-47
2022/12/09 02:57:56;;;;;;;154.55;59.33;;;4.30;93.00;;;;;;1872927;76;20993;-48
2022/12/09 03:00:26;;;;;;;150.35;61.83;;;4.20;93.10;;;;;;1873045;77;21408;-48
2022/12/09 03:03:01;;;;;;;99.77;44.53;;;4.20;93.20;;;;;;1872808;77;21016;-48
2022/12/09 03:05:39;;;;;;;75.97;35.68;;;4.20;93.20;;;;;;1872871;77;21126;-49
2022/12/09 03:08:38;;;;;;;80.47;34.43;;;4.10;93.10;;;;;;1872612;76;21483;-47
2022/12/09 03:11:13;;;;;;;84.87;34.67;;;4.10;93.20;;;;;;1872204;76;21052;-48
2022/12/09 03:13:55;;;;;;;73.12;35.20;;;4.10;93.20;;;;;;1872884;76;21036;-48
2022/12/09 03:16:27;;;;;;;47.83;22.82;;;4.00;93.10;;;;;;1872830;76;21040;-48
2022/12/09 03:19:22;;;;;;;40.12;18.20;;;4.00;93.10;;;;;;1872845;77;21071;-51
2022/12/09 03:21:53;;;;;;;32.10;17.75;;;3.90;93.00;;;;;;1873183;76;21122;-47
2022/12/09 03:24:25;;;;;;;37.53;19.45;;;3.90;93.30;;;;;;1872887;77;21110;-49
2022/12/09 03:26:55;;;;;;;32.42;16.50;;;3.90;93.50;;;;;;1872819;77;21076;-48
2022/12/09 03:29:26;;;;;;;33.35;17.62;;;3.90;93.60;;;;;;1872893;77;21008;-49
2022/12/09 03:31:57;;;;;;;31.75;16.57;;;4.00;93.50;;;;;;1872915;77;21090;-52
2022/12/09 03:34:29;;;;;;;42.23;17.52;;;4.10;93.40;;;;;;1873062;77;21012;-50
2022/12/09 03:36:59;;;;;;;30.02;18.07;;;4.10;93.40;;;;;;1872787;76;21479;-47
2022/12/09 03:39:31;;;;;;;33.33;16.48;;;4.10;93.40;;;;;;1872952;77;21064;-48
2022/12/09 03:42:03;;;;;;;37.10;18.48;;;4.20;93.50;;;;;;1872875;76;21068;-50
2022/12/09 03:44:40;;;;;;;39.30;20.95;;;4.20;93.30;;;;;;1873010;77;21008;-48
2022/12/09 03:47:10;;;;;;;35.75;18.60;;;4.20;93.20;;;;;;1880218;75;21072;-49
2022/12/09 03:49:40;;;;;;;30.52;17.80;;;4.20;93.10;;;;;;1882360;76;21486;-47
2022/12/09 03:52:11;;;;;;;26.85;15.93;;;4.10;93.10;;;;;;1882375;76;21086;-48
2022/12/09 03:54:46;;;;;;;29.60;16.17;;;4.10;93.20;;;;;;1882508;76;21028;-50
2022/12/09 03:57:17;;;;;;;31.62;17.52;;;4.10;93.30;;;;;;1880077;76;21060;-49
2022/12/09 03:59:49;;;;;;;31.93;16.87;;;4.10;93.30;;;;;;1882332;76;21024;-48
2022/12/09 04:02:18;;;;;;;29.07;15.80;;;4.10;93.10;;;;;;1882072;76;21127;-50
2022/12/09 04:04:47;;;;;;;36.80;17.82;;;4.00;93.10;;;;;;1882280;76;21020;-47
2022/12/09 04:07:18;;;;;;;34.10;16.20;;;4.00;93.20;;;;;;1882278;76;21495;-50
2022/12/09 04:09:47;;;;;;;31.15;17.32;;;4.00;93.30;;;;;;1882297;76;21059;-47
2022/12/09 04:12:16;;;;;;;36.10;19.25;;;4.10;93.40;;;;;;1882370;76;21076;-52
2022/12/09 04:14:45;;;;;;;30.50;17.45;;;4.10;93.40;;;;;;1882349;76;21089;-48
2022/12/09 04:17:15;;;;;;;36.80;20.48;;;4.20;93.40;;;;;;1882264;76;21110;-50
2022/12/09 04:19:44;;;;;;;42.23;22.15;;;4.20;93.30;;;;;;1882321;76;21459;-49
2022/12/09 04:22:13;;;;;;;40.83;18.75;;;4.30;93.10;;;;;;1882415;76;21036;-48
2022/12/09 04:24:42;;;;;;;36.40;16.85;;;4.20;93.00;;;;;;1882305;76;21052;-49
2022/12/09 04:27:12;;;;;;;52.15;23.85;;;4.20;93.00;;;;;;1882276;76;21148;-52
2022/12/09 04:29:41;;;;;;;33.30;17.73;;;4.10;93.10;;;;;;1882230;75;21079;-50
2022/12/09 04:32:10;;;;;;;31.85;15.58;;;4.00;93.30;;;;;;1882168;76;21040;-51
2022/12/09 04:34:39;;;;;;;21.30;13.30;;;4.10;93.40;;;;;;1882189;76;21102;-50
2022/12/09 04:37:09;;;;;;;27.00;12.90;;;4.10;93.40;;;;;;1882175;76;21117;-47
2022/12/09 04:39:40;;;;;;;24.37;15.53;;;4.20;93.50;;;;;;1882326;76;21032;-49
2022/12/09 04:42:09;;;;;;;24.70;14.78;;;4.20;93.40;;;;;;1882208;76;21017;-50
2022/12/09 04:44:38;;;;;;;25.97;12.80;;;4.20;93.40;;;;;;1882167;76;21083;-51
2022/12/09 04:47:07;;;;;;;25.80;15.05;;;4.30;93.30;;;;;;1876313;75;21053;-49
2022/12/09 04:49:36;;;;;;;22.45;14.98;;;4.30;93.30;;;;;;1872712;77;21024;-49
2022/12/09 04:52:06;;;;;;;22.67;15.68;;;4.30;93.30;;;;;;1872710;77;21021;-48
2022/12/09 04:54:35;;;;;;;23.70;16.67;;;4.30;93.30;;;;;;1872769;77;21521;-48
2022/12/09 04:57:04;;;;;;;26.37;15.43;;;4.40;93.30;;;;;;1872823;77;21044;-48
2022/12/09 04:59:34;;;;;;;21.70;14.45;;;4.40;93.20;;;;;;1872739;77;21017;-51
2022/12/09 05:02:03;;;;;;;20.88;13.05;;;4.40;93.30;;;;;;1872731;77;21115;-49
2022/12/09 05:04:32;;;;;;;20.82;12.53;;;4.40;93.40;;;;;;1872815;77;20993;-47
2022/12/09 05:07:01;;;;;;;20.10;12.63;;;4.40;93.40;;;;;;1872698;77;21506;-48
2022/12/09 05:09:30;;;;;;;24.45;12.90;;;4.40;93.30;;;;;;1872781;76;21428;-49
2022/12/09 05:11:59;;;;;;;18.42;13.10;;;4.50;93.30;;;;;;1872722;77;21094;-50
2022/12/09 05:14:29;;;;;;;25.57;13.70;;;4.50;93.40;;;;;;1872724;76;21053;-47
2022/12/09 05:16:58;;;;;;;20.50;12.82;;;4.60;93.40;;;;;;1872721;77;21060;-47
2022/12/09 05:19:28;;;;;;;21.02;12.30;;;4.60;92.70;;;;;;1872776;76;21082;-50
2022/12/09 05:21:57;;;;;;;21.33;13.08;;;4.50;92.80;;;;;;1872908;77;21107;-49
2022/12/09 05:24:27;;;;;;;31.62;16.30;;;4.40;93.10;;;;;;1872866;77;21090;-49
2022/12/09 05:26:56;;;;;;;35.73;22.15;;;4.30;93.30;;;;;;1872830;77;21012;-48
2022/12/09 05:29:25;;;;;;;51.42;32.58;;;4.40;93.20;;;;;;1872809;77;21013;-49
2022/12/09 05:31:54;;;;;;;46.42;27.22;;;4.30;93.20;;;;;;1872934;76;21033;-48
2022/12/09 05:34:23;;;;;;;45.48;29.07;;;4.30;93.20;;;;;;1872996;77;21015;-49
2022/12/09 05:36:53;;;;;;;52.55;27.52;;;4.40;93.50;;;;;;1872998;76;21038;-48
2022/12/09 05:39:22;;;;;;;48.23;26.02;;;4.40;93.50;;;;;;1872942;77;21142;-48
2022/12/09 05:41:54;;;;;;;39.20;25.25;;;4.50;93.50;;;;;;1872905;76;21108;-49
2022/12/09 05:44:23;;;;;;;47.78;27.77;;;4.50;93.40;;;;;;1872762;77;21123;-47
2022/12/09 05:46:53;;;;;;;57.08;25.52;;;4.60;93.40;;;;;;1875157;75;21065;-48
2022/12/09 05:49:22;;;;;;;38.98;22.75;;;4.60;93.40;;;;;;1882456;76;21160;-49
2022/12/09 05:51:52;;;;;;;43.20;24.50;;;4.70;93.40;;;;;;1882335;76;21145;-49
2022/12/09 05:54:21;;;;;;;32.80;20.88;;;4.70;93.40;;;;;;1882435;76;21129;-49
2022/12/09 05:56:50;;;;;;;26.48;18.60;;;4.70;93.30;;;;;;1882512;75;21048;-48
2022/12/09 05:59:24;;;;;;;26.75;17.40;;;4.70;93.30;;;;;;1882417;76;21543;-49
2022/12/09 06:01:50;;;;;;;29.75;17.62;;;4.70;93.30;;;;;;1881756;76;21169;-48
2022/12/09 06:04:19;;;;;;;31.30;18.98;;;4.70;93.30;;;;;;1882332;76;21082;-49
2022/12/09 06:06:48;;;;;;;36.70;21.33;;;4.70;93.40;;;;;;1882278;76;21110;-48
2022/12/09 06:09:17;;;;;;;32.08;20.35;;;4.70;93.50;;;;;;1882260;76;21024;-48
2022/12/09 06:11:46;;;;;;;25.55;18.00;;;4.80;93.50;;;;;;1882231;76;21044;-49
2022/12/09 06:14:16;;;;;;;35.75;19.00;;;4.90;93.60;;;;;;1882288;76;20996;-50
2022/12/09 06:16:45;;;;;;;39.00;20.17;;;5.00;93.60;;;;;;1882259;76;21415;-49
2022/12/09 06:19:14;;;;;;;30.37;19.65;;;5.10;93.60;;;;;;1882286;76;21079;-49
2022/12/09 06:21:43;;;;;;;37.00;18.62;;;5.20;93.50;;;;;;1882379;76;21130;-48
2022/12/09 06:24:12;;;;;;;30.72;18.15;;;5.20;93.50;;;;;;1882364;76;21135;-48
2022/12/09 06:26:42;;;;;;;29.37;20.75;;;5.30;93.50;;;;;;1882230;76;21036;-49
2022/12/09 06:29:11;;;;;;;33.58;21.60;;;5.40;93.60;;;;;;1882260;76;21024;-48
2022/12/09 06:31:40;;;;;;;35.55;22.93;;;5.40;93.40;;;;;;1882311;76;21106;-48
2022/12/09 06:34:09;;;;;;;35.03;22.73;;;5.40;93.40;;;;;;1882272;76;21000;-49
2022/12/09 06:36:38;;;;;;;40.73;24.50;;;5.40;93.30;;;;;;1882290;76;21086;-48
2022/12/09 06:39:07;;;;;;;35.03;22.35;;;5.40;93.30;;;;;;1882394;75;21450;-50
2022/12/09 06:41:36;;;;;;;43.87;23.45;;;5.50;93.50;;;;;;1882277;76;21024;-48
2022/12/09 06:44:05;;;;;;;37.33;21.30;;;5.50;93.50;;;;;;1882278;76;21542;-49
2022/12/09 06:46:35;;;;;;;34.50;20.50;;;5.60;93.60;;;;;;1882269;76;21110;-51
2022/12/09 06:49:04;;;;;;;33.20;22.93;;;5.60;93.50;;;;;;1877245;75;21036;-50
2022/12/09 06:51:34;;;;;;;33.75;21.75;;;5.70;93.40;;;;;;1882292;76;21110;-49
2022/12/09 06:54:04;;;;;;;36.98;22.77;;;5.60;93.40;;;;;;1882275;76;21111;-49
2022/12/09 06:56:33;;;;;;;36.13;21.77;;;5.60;93.50;;;;;;1882276;76;21084;-48
2022/12/09 06:59:07;;;;;;;45.85;22.55;;;5.50;93.50;;;;;;1882270;76;21122;-49
2022/12/09 07:01:36;;;;;;;40.73;20.52;;;5.60;93.60;;;;;;1882278;75;21078;-47
2022/12/09 07:04:06;;;;;;;34.80;20.52;;;5.50;93.70;;;;;;1882208;76;20992;-48
2022/12/09 07:06:43;;;;;;;31.80;19.80;;;5.60;93.60;;;;;;1882260;76;20992;-51
2022/12/09 07:09:18;;;;;;;38.13;20.68;;;5.60;93.60;;;;;;1882293;76;21047;-48
2022/12/09 07:11:48;;;;;;;32.60;18.10;;;5.80;93.70;;;;;;1882491;75;21094;-49
2022/12/09 07:14:17;;;;;;;31.05;18.57;;;5.80;93.60;;;;;;1882282;76;21020;-49
2022/12/09 07:16:47;;;;;;;28.77;20.48;;;5.90;93.60;;;;;;1882360;76;21036;-48
2022/12/09 07:19:18;;;;;;;32.25;18.35;;;5.90;93.60;;;;;;1882306;76;21020;-50
2022/12/09 07:21:48;;;;;;;34.13;17.82;;;5.90;93.70;;;;;;1882186;76;21029;-47
2022/12/09 07:24:18;;;;;;;24.05;18.12;;;6.00;93.60;;;;;;1882288;76;21079;-48
2022/12/09 07:26:48;;;;;;;26.20;17.37;;;6.00;93.70;;;;;;1882348;76;21063;-49
2022/12/09 07:29:18;;;;;;;26.45;15.63;;;6.10;93.70;;;;;;1882240;76;21040;-48
2022/12/09 07:31:47;;;;;;;22.30;13.13;;;6.10;93.70;;;;;;1882193;76;21111;-49
2022/12/09 07:34:16;;;;;;;29.85;15.93;;;6.20;93.80;;;;;;1882250;76;21134;-50
2022/12/09 07:36:46;;;;;;;76.77;38.63;;;6.30;93.80;;;;;;1882227;76;20993;-48
2022/12/09 07:39:16;;;;;;;33.73;18.30;;;6.30;93.80;;;;;;1882205;76;21103;-48
2022/12/09 07:41:47;;;;;;;29.60;15.15;;;6.40;94.20;;;;;;1882160;76;21016;-49
2022/12/09 07:44:16;;;;;;;24.02;15.13;;;6.40;93.90;;;;;;1882156;76;21035;-48
2022/12/09 07:46:46;;;;;;;21.48;12.78;;;6.50;93.80;;;;;;1882156;76;21114;-48
2022/12/09 07:49:16;;;;;;;36.77;13.80;;;6.60;94.20;;;;;;1880827;76;21008;-59
2022/12/09 07:51:46;;;;;;;20.77;11.97;;;6.60;94.20;;;;;;1872656;77;21032;-57
2022/12/09 07:54:17;;;;;;;18.52;11.68;;;6.70;94.10;;;;;;1872765;76;21066;-56
2022/12/09 07:56:47;;;;;;;22.07;11.50;;;6.70;94.00;;;;;;1886502;74;21044;-56
2022/12/09 07:59:16;;;;;;;21.45;12.63;;;6.80;94.30;;;;;;1889345;75;21126;-54
2022/12/09 08:01:45;;;;;;;29.90;22.48;;;6.90;94.10;;;;;;1890414;75;21527;-55
2022/12/09 08:04:14;;;;;;;42.73;27.07;;;6.90;94.20;;;;;;1888767;75;20996;-56
2022/12/09 08:06:44;;;;;;;45.60;31.10;;;7.00;94.10;;;;;;1904268;75;21083;-54
2022/12/09 08:09:14;;;;;;;42.38;32.08;;;7.10;94.10;;;;;;1904760;75;21070;-55
2022/12/09 08:11:43;;;;;;;49.10;36.03;;;7.10;94.10;;;;;;1904661;75;21074;-56
2022/12/09 08:14:12;;;;;;;45.20;32.20;;;7.20;94.20;;;;;;1904983;75;21540;-51
2022/12/09 08:16:42;;;;;;;46.45;36.63;;;7.20;94.10;;;;;;1904142;75;21088;-56
2022/12/09 08:19:12;;;;;;;46.63;33.67;;;7.20;94.20;;;;;;1904847;75;21043;-56
2022/12/09 08:21:42;;;;;;;46.50;30.15;;;7.30;94.30;;;;;;1905134;75;21089;-56
2022/12/09 08:24:12;;;;;;;46.85;28.80;;;7.30;94.30;;;;;;1905236;75;21101;-53
2022/12/09 08:26:42;;;;;;;28.25;19.95;;;7.40;94.20;;;;;;1905148;75;21020;-56
2022/12/09 08:29:12;;;;;;;29.45;16.97;;;7.40;94.60;;;;;;1905328;75;21008;-56
2022/12/09 08:31:42;;;;;;;23.70;15.50;;;7.40;94.30;;;;;;1905206;75;21125;-55
2022/12/09 08:34:11;;;;;;;25.55;16.23;;;7.50;94.30;;;;;;1905169;75;21003;-56
2022/12/09 08:36:41;;;;;;;16.55;10.38;;;7.60;94.30;;;;;;1905165;75;21089;-66
2022/12/09 08:39:11;;;;;;;18.05;10.80;;;7.70;94.40;;;;;;1905159;75;21035;-62
2022/12/09 08:41:40;;;;;;;17.70;10.82;;;7.90;95.10;;;;;;1905197;75;21043;-62
2022/12/09 08:44:12;;;;;;;20.55;11.03;;;8.30;95.70;;;;;;1905192;74;21007;-62
2022/12/09 08:46:43;;;;;;;22.37;11.45;;;8.70;95.70;;;;;;1903898;75;21106;-64
2022/12/09 08:49:16;;;;;;;33.02;14.83;;;9.00;95.60;;;;;;1904627;75;21031;-64
2022/12/09 08:51:44;;;;;;;26.95;14.90;;;9.30;95.40;;;;;;1904407;75;21096;-60
2022/12/09 08:54:13;;;;;;;20.25;12.78;;;9.50;95.30;;;;;;1904591;75;21095;-60
2022/12/09 08:56:45;;;;;;;21.07;12.07;;;9.80;95.20;;;;;;1904770;75;21064;-62
2022/12/09 08:59:15;;;;;;;27.10;14.53;;;10.00;95.00;;;;;;1905025;75;20995;-59
2022/12/09 09:01:45;;;;;;;29.90;17.77;;;10.20;94.50;;;;;;1904712;75;21024;-59
2022/12/09 09:04:17;;;;;;;25.75;15.70;;;10.30;93.50;;;;;;1904851;74;21117;-60
2022/12/09 09:06:48;;;;;;;22.95;14.70;;;10.20;93.10;;;;;;1904737;75;21039;-58
2022/12/09 09:09:18;;;;;;;23.60;15.78;;;10.00;93.60;;;;;;1904681;75;21047;-59
2022/12/09 09:11:47;;;;;;;25.17;17.77;;;9.90;93.70;;;;;;1904911;75;21035;-46
2022/12/09 09:14:17;;;;;;;23.75;18.48;;;9.90;93.70;;;;;;1904696;75;21027;-45
2022/12/09 09:16:47;;;;;;;30.00;17.73;;;9.80;93.70;;;;;;1904603;75;21028;-47
2022/12/09 09:19:21;;;;;;;25.08;17.00;;;9.80;93.60;;;;;;1904816;75;21112;-46
2022/12/09 09:21:50;;;;;;;25.95;16.00;;;9.70;93.60;;;;;;1904823;75;21140;-48
2022/12/09 09:24:23;;;;;;;26.20;14.60;;;9.60;93.70;;;;;;1904696;75;21093;-49
2022/12/09 09:26:53;;;;;;;28.60;15.30;;;9.50;93.70;;;;;;1904921;75;21007;-53
2022/12/09 09:29:23;;;;;;;20.65;13.62;;;9.40;93.80;;;;;;1904469;74;21043;-56
2022/12/09 09:31:56;;;;;;;21.27;11.57;;;9.50;94.30;;;;;;1904753;74;21024;-57
2022/12/09 09:34:26;;;;;;;16.52;11.80;;;9.70;94.60;;;;;;1904325;75;21015;-49
2022/12/09 09:36:56;;;;;;;20.72;12.65;;;9.90;94.40;;;;;;1876514;75;21084;-50
2022/12/09 09:39:25;;;;;;;16.57;11.73;;;10.10;94.30;;;;;;1872070;76;21028;-46
2022/12/09 09:42:00;;;;;;;26.87;15.35;;;10.20;94.10;;;;;;1872375;76;21021;-45
2022/12/09 09:44:37;;;;;;;28.10;14.13;;;10.40;94.10;;;;;;1880043;75;21145;-47
2022/12/09 09:47:18;;;;;;;24.27;14.98;;;10.50;93.40;;;;;;1890555;75;21061;-48
2022/12/09 09:50:07;;;;;;;27.30;14.23;;;10.40;93.30;;;;;;1904635;75;21070;-48
2022/12/09 09:52:39;;;;;;;23.67;13.43;;;10.30;93.30;;;;;;1912921;75;21039;-46
2022/12/09 09:55:17;;;;;;;20.72;13.60;;;10.20;93.20;;;;;;1914152;75;21473;-46
2022/12/09 09:58:04;;;;;;;25.08;14.20;;;10.10;93.30;;;;;;1914195;75;21434;-51
2022/12/09 10:00:44;;;;;;;28.40;14.45;;;10.00;93.40;;;;;;1909339;75;21128;-51
2022/12/09 10:03:31;;;;;;;25.60;14.40;;;9.90;93.50;;;;;;1914006;74;21113;-47
2022/12/09 10:06:03;;;;;;;23.25;13.10;;;9.80;93.40;;;;;;1883765;76;21018;-48
2022/12/09 10:08:35;;;;;;;23.52;13.03;;;9.80;93.50;;;;;;1877630;76;21093;-49
2022/12/09 10:11:20;;;;;;;23.15;13.75;;;9.70;93.60;;;;;;1923228;74;21114;-46
2022/12/09 10:14:16;;;;;;;22.82;13.70;;;9.70;93.60;;;;;;1922999;74;21096;-47
2022/12/09 10:16:51;;;;;;;25.10;14.90;;;9.70;93.60;;;;;;1922933;74;20980;-48
2022/12/09 10:19:23;;;;;;;26.52;14.80;;;9.70;93.60;;;;;;1884414;74;21473;-47
2022/12/09 10:21:53;;;;;;;24.85;14.47;;;9.60;93.50;;;;;;1915787;74;21472;-57
2022/12/09 10:24:33;;;;;;;32.78;16.12;;;9.60;93.70;;;;;;1923526;74;21135;-57
2022/12/09 10:27:20;;;;;;;29.18;17.07;;;9.60;93.60;;;;;;1924027;74;21321;-55
2022/12/09 10:30:13;;;;;;;33.53;18.80;;;9.60;93.70;;;;;;1914669;74;21068;-62
2022/12/09 10:32:43;;;;;;;31.93;18.17;;;9.60;93.80;;;;;;1890864;74;21109;-59
2022/12/09 10:35:17;;;;;;;25.90;18.02;;;9.60;93.80;;;;;;1924466;74;21003;-59
2022/12/09 10:37:48;;;;;;;31.42;17.87;;;9.60;93.80;;;;;;1922066;74;21481;-60
2022/12/09 10:40:36;;;;;;;34.27;19.07;;;9.60;93.80;;;;;;1924433;74;21583;-56
2022/12/09 10:43:42;;;;;;;32.88;19.50;;;9.60;93.90;;;;;;1913258;74;21042;-59
2022/12/09 10:46:17;;;;;;;31.95;19.45;;;9.70;93.90;;;;;;1867511;76;21010;-58
2022/12/09 10:48:50;;;;;;;39.60;18.92;;;9.70;93.90;;;;;;1917147;74;21038;-59
2022/12/09 10:51:37;;;;;;;30.20;18.25;;;9.70;94.00;;;;;;1922695;74;21110;-58
2022/12/09 10:54:31;;;;;;;28.27;18.07;;;9.70;94.00;;;;;;1917703;75;21000;-59
2022/12/09 10:57:09;;;;;;;32.47;17.67;;;9.80;93.90;;;;;;1917899;75;21046;-58
2022/12/09 10:59:40;;;;;;;30.57;17.17;;;9.80;94.00;;;;;;1917619;75;21038;-60
2022/12/09 11:02:12;;;;;;;35.00;17.92;;;9.90;93.90;;;;;;1917776;75;21006;-59
2022/12/09 11:04:43;;;;;;;32.33;17.55;;;9.90;93.90;;;;;;1917657;75;21045;-59
2022/12/09 11:07:26;;;;;;;29.72;17.15;;;9.90;93.90;;;;;;1917593;75;20999;-59
2022/12/09 11:09:58;;;;;;;25.70;12.58;;;9.90;93.90;;;;;;1895912;74;21031;-58
2022/12/09 11:12:30;;;;;;;23.98;15.78;;;9.90;93.90;;;;;;1917753;75;21501;-57
2022/12/09 11:15:05;;;;;;;30.85;14.93;;;10.00;94.70;;;;;;1917670;75;21499;-57
2022/12/09 11:17:39;;;;;;;25.62;15.25;;;10.20;94.90;;;;;;1917682;75;21027;-59
2022/12/09 11:20:20;;;;;;;35.43;15.68;;;10.50;95.10;;;;;;1917645;75;21085;-57
2022/12/09 11:23:15;;;;;;;34.13;20.60;;;10.70;95.20;;;;;;1917515;75;21035;-58
2022/12/09 11:26:05;;;;;;;47.30;22.33;;;10.90;94.90;;;;;;1917939;75;21061;-59
2022/12/09 11:28:36;;;;;;;38.15;21.50;;;11.00;94.20;;;;;;1914271;74;21023;-58
2022/12/09 11:31:08;;;;;;;41.15;21.25;;;10.90;93.90;;;;;;1916455;74;21042;-58
2022/12/09 11:33:40;;;;;;;37.30;22.13;;;10.80;93.80;;;;;;1917097;74;21441;-58
2022/12/09 11:36:11;;;;;;;35.30;20.88;;;10.70;93.80;;;;;;1917602;75;21022;-58
2022/12/09 11:38:46;;;;;;;36.65;21.35;;;10.60;93.90;;;;;;1916809;74;20988;-58
2022/12/09 11:43:51;;;;;;;37.53;20.57;;;10.50;93.90;;;;;;1885518;74;21051;-59
2022/12/09 11:46:28;;;;;;;31.60;20.40;;;10.40;93.80;;;;;;1917601;75;20979;-58
2022/12/09 11:49:09;;;;;;;35.63;20.62;;;10.40;93.90;;;;;;1917661;75;21073;-59
2022/12/09 11:51:43;;;;;;;40.52;20.12;;;10.40;93.90;;;;;;1910337;74;21161;-59
2022/12/09 11:54:24;;;;;;;39.42;20.95;;;10.40;93.90;;;;;;1921961;74;21522;-58
2022/12/09 11:56:54;;;;;;;35.20;21.50;;;10.30;94.20;;;;;;1924850;74;21120;-58
2022/12/09 11:59:32;;;;;;;39.23;21.45;;;10.30;93.90;;;;;;1924790;74;21139;-59
2022/12/09 12:02:12;;;;;;;39.50;21.97;;;10.30;93.90;;;;;;1924780;74;21002;-58
2022/12/09 12:05:00;;;;;;;36.40;21.62;;;10.30;94.00;;;;;;1924789;74;21014;-59
2022/12/09 12:07:50;;;;;;;36.90;22.77;;;10.30;94.00;;;;;;1879083;76;21100;-59
2022/12/09 12:10:31;;;;;;;40.63;22.80;;;10.20;94.00;;;;;;1918117;74;21003;-59
2022/12/09 12:13:11;;;;;;;39.20;22.62;;;10.20;94.10;;;;;;1924623;74;21027;-59
2022/12/09 12:15:52;;;;;;;41.48;23.85;;;10.20;94.20;;;;;;1924671;74;21485;-59
2022/12/09 12:18:22;;;;;;;43.45;23.52;;;10.20;94.20;;;;;;1924677;74;21038;-59
2022/12/09 12:21:13;;;;;;;40.12;23.00;;;10.20;94.10;;;;;;1924599;74;21066;-59
2022/12/09 12:23:47;;;;;;;44.90;23.85;;;10.20;94.10;;;;;;1887640;74;21011;-58
2022/12/09 12:26:31;;;;;;;33.85;21.25;;;10.30;94.20;;;;;;1924868;74;21034;-59
2022/12/09 12:29:18;;;;;;;34.50;22.35;;;10.30;94.20;;;;;;1924161;74;21049;-59
2022/12/09 12:31:53;;;;;;;37.08;21.50;;;10.30;94.20;;;;;;1924371;74;21081;-59
2022/12/09 12:34:30;;;;;;;34.95;21.65;;;10.30;94.20;;;;;;1923947;74;21038;-59
2022/12/09 12:37:20;;;;;;;35.88;19.05;;;10.30;94.10;;;;;;1900039;74;21023;-58
2022/12/09 12:40:17;;;;;;;35.98;21.27;;;10.30;94.20;;;;;;1924562;74;21073;-59
2022/12/09 12:46:19;;;;;;;40.55;21.25;;;10.30;94.30;;;;;;1909839;74;21070;-59
2022/12/09 12:49:14;;;;;;;32.15;20.52;;;10.40;94.30;;;;;;1924651;74;21054;-59
2022/12/09 12:51:57;;;;;;;46.77;26.90;;;10.40;94.30;;;;;;1925026;74;21120;-60
2022/12/09 12:54:41;;;;;;;52.73;27.17;;;10.40;94.60;;;;;;1924166;74;21438;-59
2022/12/09 12:57:31;;;;;;;45.63;25.85;;;10.40;94.20;;;;;;1923748;74;21084;-60
2022/12/09 13:00:12;;;;;;;38.33;23.02;;;10.40;94.20;;;;;;1924603;74;21077;-57
2022/12/09 13:02:56;;;;;;;48.85;22.48;;;10.50;94.20;;;;;;1924661;74;21041;-59
2022/12/09 13:05:30;;;;;;;45.78;25.12;;;10.50;94.30;;;;;;1924651;74;21074;-59
2022/12/09 13:08:02;;;;;;;44.85;23.60;;;10.40;94.20;;;;;;1924927;74;21543;-59
2022/12/09 13:10:49;;;;;;;39.18;22.45;;;10.40;94.20;;;;;;1924613;74;21449;-59
2022/12/09 13:13:50;;;;;;;44.80;25.25;;;10.40;94.20;;;;;;1924691;74;21003;-59